KSYN/SYN METAR and TAF weather

Enter ICAO airport designator
Station Type Date Time Source
KSYN METAR 2023/02/04 02:15 UTC NOAA

KSYN 040215Z AUTO 18008KT 10SM SCT038 M16/M22 A3030 RMK AO2 T11601225


Station Type Date Time Source
KSYN Decoded METAR 2023/02/04 02:15 UTC NOAA

Stanton, Stanton Airfield, MN, United States (KSYN) 44-28-31N 093-00-58W
Feb 03, 2023 - 09:15 PM EST / 2023.02.04 0215 UTC
Wind: from the S (180 degrees) at 9 MPH (8 KT):0
Visibility: 10 mile(s):0
Sky conditions: partly cloudy
Temperature: 3.2 F (-16.0 C)
Windchill: -11 F (-24 C):2
Dew Point: -8.5 F (-22.5 C)
Relative Humidity: 57%
Pressure (altimeter): 30.3 in. Hg (1026 hPa)
ob: KSYN 040215Z AUTO 18008KT 10SM SCT038 M16/M22 A3030 RMK AO2 T11601225
cycle: 2

Station Type Date Time Source
KSYN TAF UTC NOAA

Error!

Example: see airport list